createdAt,value
2018-06-09T00:00:54.417Z,12.2
2018-06-09T00:01:55.185Z,7.2
2018-06-09T00:02:55.918Z,7.2
2018-06-09T00:03:56.630Z,10.0
2018-06-09T00:04:57.360Z,9.4
2018-06-09T00:05:58.090Z,8.2
2018-06-09T00:06:58.805Z,7.4
2018-06-09T00:07:59.541Z,7.1
2018-06-09T00:09:00.319Z,7.3
2018-06-09T00:10:01.041Z,9.0
2018-06-09T00:11:02.028Z,12.4
2018-06-09T00:12:02.757Z,12.9
2018-06-09T00:13:03.483Z,8.8
2018-06-09T00:14:04.769Z,11.8
2018-06-09T00:15:05.747Z,11.2
2018-06-09T00:16:06.484Z,9.7
2018-06-09T00:17:07.214Z,9.3
2018-06-09T00:18:07.944Z,9.6
2018-06-09T00:19:08.676Z,7.4
2018-06-09T00:20:09.403Z,9.1
2018-06-09T00:21:10.126Z,6.7
2018-06-09T00:22:10.854Z,9.6
2018-06-09T00:23:11.576Z,14.1
2018-06-09T00:24:12.401Z,7.5
2018-06-09T00:25:13.117Z,7.8
2018-06-09T00:26:13.852Z,8.5
2018-06-09T00:27:14.566Z,7.8
2018-06-09T00:28:15.296Z,11.5
2018-06-09T00:29:16.021Z,8.4
2018-06-09T00:30:16.748Z,10.5
2018-06-09T00:31:17.506Z,8.0
2018-06-09T00:32:18.235Z,13.4
2018-06-09T00:33:19.204Z,9.4
2018-06-09T00:34:19.979Z,7.6
2018-06-09T00:35:20.700Z,10.6
2018-06-09T00:36:21.668Z,7.1
2018-06-09T00:37:22.388Z,9.6
2018-06-09T00:38:23.114Z,11.6
2018-06-09T00:39:23.973Z,7.0
2018-06-09T00:40:24.952Z,6.9
2018-06-09T00:41:25.671Z,7.3
2018-06-09T00:42:26.389Z,6.7
2018-06-09T00:43:27.107Z,9.4
2018-06-09T00:44:28.143Z,12.1
2018-06-09T00:45:28.867Z,8.2
2018-06-09T00:46:29.590Z,6.7
2018-06-09T00:47:30.357Z,10.7
2018-06-09T00:48:31.072Z,7.6
2018-06-09T00:49:31.844Z,14.4
2018-06-09T00:50:32.576Z,6.9
2018-06-09T00:51:33.300Z,8.9
2018-06-09T00:52:34.043Z,5.8
2018-06-09T00:53:34.769Z,8.0
2018-06-09T00:54:35.497Z,7.1
2018-06-09T00:55:36.218Z,10.9
2018-06-09T00:56:36.948Z,6.7
2018-06-09T00:57:37.701Z,12.6
2018-06-09T00:58:38.424Z,7.9
2018-06-09T00:59:39.153Z,7.3
2018-06-09T01:00:39.878Z,6.0
2018-06-09T01:01:40.699Z,6.6
2018-06-09T01:02:41.426Z,9.5
2018-06-09T01:03:42.155Z,11.4
2018-06-09T01:04:42.899Z,10.0
2018-06-09T01:05:43.629Z,12.1
2018-06-09T01:06:44.371Z,7.2
2018-06-09T01:07:45.099Z,7.5
2018-06-09T01:08:45.819Z,7.3
2018-06-09T01:09:46.784Z,8.1
2018-06-09T01:10:47.507Z,8.4
2018-06-09T01:11:48.234Z,9.3
2018-06-09T01:12:48.961Z,11.4
2018-06-09T01:13:49.681Z,8.9
2018-06-09T01:14:50.443Z,7.4
2018-06-09T01:15:51.159Z,12.7
2018-06-09T01:16:51.985Z,7.5
2018-06-09T01:17:52.962Z,9.6
2018-06-09T01:18:53.694Z,11.8
2018-06-09T01:19:54.412Z,6.6
2018-06-09T01:20:55.134Z,13.7
2018-06-09T01:21:55.895Z,24.5
2018-06-09T01:22:56.718Z,27.3
2018-06-09T01:23:57.449Z,14.2
2018-06-09T01:24:58.179Z,14.4
2018-06-09T01:25:58.902Z,11.9
2018-06-09T01:26:59.867Z,19.0
2018-06-09T01:28:00.586Z,14.6
2018-06-09T01:29:01.313Z,8.7
2018-06-09T01:30:02.036Z,9.7
2018-06-09T01:31:02.754Z,13.8
2018-06-09T01:32:03.481Z,22.3
2018-06-09T01:33:04.609Z,19.2
2018-06-09T01:34:05.574Z,26.1
2018-06-09T01:35:06.303Z,11.6
2018-06-09T01:36:07.023Z,10.3
2018-06-09T01:37:07.747Z,14.7
2018-06-09T01:38:08.459Z,16.9
2018-06-09T01:39:09.192Z,9.7
2018-06-09T01:40:09.927Z,10.1
2018-06-09T01:41:10.658Z,9.6
2018-06-09T01:42:11.381Z,8.3
2018-06-09T01:43:12.115Z,8.4
2018-06-09T01:44:12.892Z,8.8
2018-06-09T01:45:13.618Z,10.2
2018-06-09T01:46:14.344Z,9.8
2018-06-09T01:47:15.320Z,8.8
2018-06-09T01:48:16.033Z,9.9
2018-06-09T01:49:16.742Z,9.1
2018-06-09T01:50:17.485Z,9.2
2018-06-09T01:51:18.217Z,11.5
2018-06-09T01:52:18.963Z,10.9
2018-06-09T01:53:19.675Z,9.8
2018-06-09T01:54:20.396Z,11.2
2018-06-09T01:55:21.122Z,8.0
2018-06-09T01:56:21.861Z,11.8
2018-06-09T01:57:22.571Z,9.1
2018-06-09T01:58:23.287Z,13.2
2018-06-09T01:59:24.019Z,11.2
2018-06-09T02:00:24.759Z,10.1
2018-06-09T02:01:25.487Z,8.4
2018-06-09T02:02:26.207Z,12.2
2018-06-09T02:03:26.936Z,12.5
2018-06-09T02:04:27.666Z,11.8
2018-06-09T02:05:28.389Z,11.2
2018-06-09T02:06:29.162Z,11.2
2018-06-09T02:07:30.126Z,9.4
2018-06-09T02:08:30.841Z,10.8
2018-06-09T02:09:31.563Z,8.9
2018-06-09T02:10:32.282Z,9.5
2018-06-09T02:11:33.009Z,8.8
2018-06-09T02:12:33.723Z,14.8
2018-06-09T02:13:34.439Z,8.6
2018-06-09T02:14:35.162Z,11.7
2018-06-09T02:15:35.893Z,15.0
2018-06-09T02:16:36.613Z,16.2
2018-06-09T02:17:37.439Z,10.0
2018-06-09T02:18:38.156Z,10.6
2018-06-09T02:19:38.877Z,15.8
2018-06-09T02:20:39.844Z,14.2
2018-06-09T02:21:40.818Z,12.1
2018-06-09T02:22:41.538Z,12.5
2018-06-09T02:23:42.263Z,11.7
2018-06-09T02:24:42.992Z,9.6
2018-06-09T02:25:44.107Z,11.9
2018-06-09T02:26:45.079Z,12.8
2018-06-09T02:27:45.812Z,10.0
2018-06-09T02:28:46.535Z,9.0
2018-06-09T02:29:47.265Z,8.9
2018-06-09T02:30:47.998Z,11.9
2018-06-09T02:31:48.714Z,9.4
2018-06-09T02:32:49.436Z,10.8
2018-06-09T02:33:50.155Z,9.4
2018-06-09T02:34:50.882Z,9.7
2018-06-09T02:35:51.649Z,10.5
2018-06-09T02:36:52.388Z,14.4
2018-06-09T02:37:53.103Z,10.4
2018-06-09T02:38:53.821Z,13.9
2018-06-09T02:39:54.555Z,10.2
2018-06-09T02:40:55.271Z,11.3
2018-06-09T02:41:56.014Z,13.1
2018-06-09T02:42:56.735Z,10.3
2018-06-09T02:43:57.834Z,12.7
2018-06-09T02:44:58.544Z,9.6
2018-06-09T02:45:59.270Z,18.6
2018-06-09T02:46:59.996Z,9.7
2018-06-09T02:48:00.713Z,10.7
2018-06-09T02:49:01.552Z,14.2
2018-06-09T02:50:02.264Z,14.8
2018-06-09T02:51:02.992Z,11.5
2018-06-09T02:52:03.719Z,10.0
2018-06-09T02:53:04.448Z,15.6
2018-06-09T02:54:05.275Z,10.1
2018-06-09T02:55:06.001Z,10.2
2018-06-09T02:56:06.735Z,12.8
2018-06-09T02:57:07.465Z,11.2
2018-06-09T02:58:08.196Z,14.3
2018-06-09T02:59:09.273Z,13.5
2018-06-09T03:00:10.006Z,12.0
2018-06-09T03:01:10.735Z,17.9
2018-06-09T03:02:11.459Z,12.1
2018-06-09T03:03:12.201Z,16.3
2018-06-09T03:04:12.933Z,13.3
2018-06-09T03:05:13.901Z,14.6
2018-06-09T03:06:14.622Z,14.5
2018-06-09T03:07:15.355Z,17.0
2018-06-09T03:08:16.325Z,12.2
2018-06-09T03:09:17.042Z,11.9
2018-06-09T03:10:18.175Z,11.7
2018-06-09T03:11:18.945Z,12.5
2018-06-09T03:12:19.678Z,12.4
2018-06-09T03:13:20.411Z,14.1
2018-06-09T03:14:21.136Z,12.3
2018-06-09T03:15:21.876Z,14.7
2018-06-09T03:16:22.749Z,16.9
2018-06-09T03:17:23.474Z,15.0
2018-06-09T03:18:24.448Z,14.3
2018-06-09T03:19:25.175Z,15.7
2018-06-09T03:20:25.905Z,12.2
2018-06-09T03:21:26.693Z,15.9
2018-06-09T03:22:27.418Z,13.9
2018-06-09T03:23:28.149Z,15.8
2018-06-09T03:24:28.892Z,13.5
2018-06-09T03:25:29.636Z,14.3
2018-06-09T03:26:30.357Z,17.8
2018-06-09T03:27:31.078Z,21.4
2018-06-09T03:28:31.809Z,15.2
2018-06-09T03:29:32.529Z,12.4
2018-06-09T03:30:33.296Z,14.4
2018-06-09T03:31:34.028Z,15.7
2018-06-09T03:32:35.047Z,12.6
2018-06-09T03:33:35.736Z,14.7
2018-06-09T03:34:36.826Z,15.9
2018-06-09T03:35:37.546Z,14.0
2018-06-09T03:36:38.274Z,15.9
2018-06-09T03:37:38.996Z,13.9
2018-06-09T03:38:39.721Z,17.8
2018-06-09T03:39:40.698Z,16.1
2018-06-09T03:40:41.439Z,12.4
2018-06-09T03:41:42.175Z,16.2
2018-06-09T03:42:42.923Z,13.4
2018-06-09T03:43:43.643Z,14.4
2018-06-09T03:44:44.384Z,17.4
2018-06-09T03:45:45.112Z,13.8
2018-06-09T03:46:45.843Z,14.8
2018-06-09T03:47:46.586Z,17.3
2018-06-09T03:48:47.335Z,15.3
2018-06-09T03:49:48.035Z,17.3
2018-06-09T03:50:48.754Z,16.0
2018-06-09T03:51:49.493Z,17.0
2018-06-09T03:52:50.223Z,17.7
2018-06-09T03:53:50.959Z,15.2
2018-06-09T03:54:51.692Z,16.6
2018-06-09T03:55:52.418Z,16.6
2018-06-09T03:56:53.400Z,16.6
2018-06-09T03:57:54.123Z,15.7
2018-06-09T03:58:54.861Z,13.2
2018-06-09T03:59:55.584Z,14.7
2018-06-09T04:00:56.311Z,16.4
2018-06-09T04:01:57.035Z,16.8
2018-06-09T04:02:57.774Z,16.2
2018-06-09T04:03:58.505Z,18.3
2018-06-09T04:04:59.234Z,18.8
2018-06-09T04:05:59.954Z,14.5
2018-06-09T04:07:00.689Z,14.4
2018-06-09T04:08:01.423Z,13.5
2018-06-09T04:09:02.144Z,15.9
2018-06-09T04:10:03.107Z,15.4
2018-06-09T04:11:03.847Z,17.6
2018-06-09T04:12:04.925Z,14.1
2018-06-09T04:13:05.652Z,15.6
2018-06-09T04:14:06.381Z,17.4
2018-06-09T04:15:07.130Z,12.9
2018-06-09T04:16:08.111Z,15.2
2018-06-09T04:17:08.845Z,15.7
2018-06-09T04:18:09.574Z,16.0
2018-06-09T04:19:10.304Z,16.9
2018-06-09T04:20:11.033Z,15.6
2018-06-09T04:21:11.765Z,15.5
2018-06-09T04:22:12.498Z,15.9
2018-06-09T04:23:13.234Z,13.5
2018-06-09T04:24:13.972Z,15.5
2018-06-09T04:25:14.706Z,20.1
2018-06-09T04:26:15.445Z,19.2
2018-06-09T04:27:16.178Z,16.1
2018-06-09T04:28:16.950Z,16.5
2018-06-09T04:29:17.626Z,19.3
2018-06-09T04:30:18.509Z,16.5
2018-06-09T04:31:19.237Z,14.8
2018-06-09T04:32:19.967Z,15.5
2018-06-09T04:33:20.700Z,21.9
2018-06-09T04:34:21.439Z,13.1
2018-06-09T04:35:22.211Z,16.3
2018-06-09T04:36:22.953Z,15.8
2018-06-09T04:37:23.687Z,12.3
2018-06-09T04:38:24.680Z,13.6
2018-06-09T04:39:25.400Z,10.6
2018-06-09T04:40:26.136Z,12.2
2018-06-09T04:41:26.864Z,13.1
2018-06-09T04:42:27.596Z,15.9
2018-06-09T04:43:28.318Z,12.6
2018-06-09T04:44:29.050Z,15.1
2018-06-09T04:45:29.786Z,13.0
2018-06-09T04:46:30.871Z,12.5
2018-06-09T04:47:31.601Z,15.7
2018-06-09T04:48:32.339Z,13.0
2018-06-09T04:49:33.080Z,15.6
2018-06-09T04:50:33.802Z,11.0
2018-06-09T04:51:34.580Z,16.2
2018-06-09T04:52:35.325Z,11.0
2018-06-09T04:53:36.037Z,11.5
2018-06-09T04:54:36.768Z,11.3
2018-06-09T04:55:37.500Z,16.6
2018-06-09T04:56:38.334Z,14.7
2018-06-09T04:57:39.321Z,14.2
2018-06-09T04:58:40.044Z,13.9
2018-06-09T04:59:40.777Z,12.9
2018-06-09T05:00:41.515Z,16.3
2018-06-09T05:01:42.340Z,12.5
2018-06-09T05:02:43.067Z,20.9
2018-06-09T05:03:43.803Z,15.7
2018-06-09T05:04:44.538Z,13.9
2018-06-09T05:05:45.264Z,12.2
2018-06-09T05:06:46.002Z,19.3
2018-06-09T05:07:46.726Z,14.1
2018-06-09T05:08:47.510Z,17.8
2018-06-09T05:09:48.236Z,15.3
2018-06-09T05:10:49.228Z,14.1
2018-06-09T05:11:49.963Z,15.6
2018-06-09T05:12:50.689Z,18.9
2018-06-09T05:13:51.715Z,22.3
2018-06-09T05:14:52.467Z,16.7
2018-06-09T05:15:53.198Z,16.8
2018-06-09T05:16:53.937Z,17.8
2018-06-09T05:17:54.674Z,14.3
2018-06-09T05:18:55.557Z,14.2
2018-06-09T05:19:56.289Z,13.5
2018-06-09T05:20:57.012Z,14.3
2018-06-09T05:21:57.762Z,18.1
2018-06-09T05:22:58.500Z,16.1
2018-06-09T05:23:59.216Z,14.4
2018-06-09T05:24:59.954Z,12.7
2018-06-09T05:26:00.692Z,16.9
2018-06-09T05:27:01.430Z,13.4
2018-06-09T05:28:02.171Z,15.3
2018-06-09T05:29:02.899Z,16.9
2018-06-09T05:30:03.636Z,16.9
2018-06-09T05:31:04.422Z,19.2
2018-06-09T05:32:05.159Z,19.3
2018-06-09T05:33:05.911Z,18.9
2018-06-09T05:34:06.639Z,19.2
2018-06-09T05:35:07.370Z,20.9
2018-06-09T05:36:08.240Z,15.1
2018-06-09T05:37:08.979Z,12.6
2018-06-09T05:38:09.718Z,13.4
2018-06-09T05:39:10.481Z,13.4
2018-06-09T05:40:11.222Z,17.6
2018-06-09T05:41:12.359Z,15.8
2018-06-09T05:42:13.097Z,18.4
2018-06-09T05:43:13.829Z,14.0
2018-06-09T05:44:14.551Z,17.8
2018-06-09T05:45:15.276Z,13.1
2018-06-09T05:46:16.012Z,21.2
2018-06-09T05:47:16.741Z,16.0
2018-06-09T05:48:17.475Z,19.7
2018-06-09T05:49:18.208Z,16.8
2018-06-09T05:50:18.937Z,24.4
2018-06-09T05:51:19.665Z,13.8
2018-06-09T05:52:20.650Z,19.3
2018-06-09T05:53:21.388Z,22.5
2018-06-09T05:54:22.136Z,20.1
2018-06-09T05:55:22.872Z,17.9
2018-06-09T05:56:23.855Z,13.3
2018-06-09T05:57:24.586Z,19.1
2018-06-09T05:58:25.309Z,15.3
2018-06-09T05:59:26.049Z,17.6
2018-06-09T06:00:26.775Z,20.0
2018-06-09T06:01:27.508Z,16.1
2018-06-09T06:02:28.236Z,15.8
2018-06-09T06:03:28.970Z,15.1
2018-06-09T06:04:29.969Z,16.0
2018-06-09T06:05:30.643Z,16.0
2018-06-09T06:06:31.375Z,21.4
2018-06-09T06:07:32.114Z,17.4
2018-06-09T06:08:33.257Z,20.2
2018-06-09T06:09:34.247Z,18.2
2018-06-09T06:10:34.981Z,15.3
2018-06-09T06:11:35.750Z,18.4
2018-06-09T06:12:36.481Z,16.5
2018-06-09T06:13:37.267Z,17.4
2018-06-09T06:14:38.006Z,13.4
2018-06-09T06:15:38.991Z,18.3
2018-06-09T06:16:39.718Z,14.5
2018-06-09T06:17:40.450Z,14.1
2018-06-09T06:18:41.186Z,16.6
2018-06-09T06:19:41.927Z,14.9
2018-06-09T06:20:42.658Z,20.7
2018-06-09T06:21:43.637Z,20.7
2018-06-09T06:22:44.474Z,18.2
2018-06-09T06:23:45.224Z,13.4
2018-06-09T06:24:45.957Z,18.4
2018-06-09T06:25:46.687Z,17.3
2018-06-09T06:26:47.422Z,17.2
2018-06-09T06:27:48.151Z,15.4
2018-06-09T06:28:48.883Z,14.9
2018-06-09T06:29:49.617Z,22.0
2018-06-09T06:30:50.346Z,19.6
2018-06-09T06:31:51.516Z,13.6
2018-06-09T06:32:52.230Z,16.0
2018-06-09T06:33:52.960Z,13.4
2018-06-09T06:34:53.684Z,15.9
2018-06-09T06:35:54.428Z,17.2
2018-06-09T06:36:55.161Z,13.0
2018-06-09T06:37:56.148Z,15.9
2018-06-09T06:38:56.902Z,13.3
2018-06-09T06:39:57.630Z,22.0
2018-06-09T06:40:58.364Z,13.2
2018-06-09T06:41:59.102Z,18.2
2018-06-09T06:42:59.837Z,15.2
2018-06-09T06:44:00.567Z,15.5
2018-06-09T06:45:01.315Z,15.1
2018-06-09T06:46:02.092Z,13.4
2018-06-09T06:47:02.826Z,16.9
2018-06-09T06:48:03.565Z,17.0
2018-06-09T06:49:04.284Z,12.2
2018-06-09T06:50:05.024Z,15.1
2018-06-09T06:51:05.757Z,17.3
2018-06-09T06:52:06.510Z,18.2
2018-06-09T06:53:07.238Z,20.3
2018-06-09T06:54:07.967Z,15.4
2018-06-09T06:55:08.704Z,15.5
2018-06-09T06:56:09.432Z,17.2
2018-06-09T06:57:10.157Z,13.9
2018-06-09T06:58:11.431Z,14.7
2018-06-09T06:59:12.155Z,16.1
2018-06-09T07:00:12.891Z,17.0
2018-06-09T07:01:13.632Z,13.7
2018-06-09T07:02:14.382Z,15.2
2018-06-09T07:03:15.111Z,14.0
2018-06-09T07:04:15.854Z,15.8
2018-06-09T07:05:16.592Z,17.3
2018-06-09T07:06:17.340Z,17.8
2018-06-09T07:07:18.069Z,14.6
2018-06-09T07:08:18.808Z,17.2
2018-06-09T07:09:19.537Z,24.0
2018-06-09T07:10:20.282Z,16.0
2018-06-09T07:11:21.003Z,19.3
2018-06-09T07:12:21.740Z,19.9
2018-06-09T07:13:22.497Z,12.6
2018-06-09T07:14:23.499Z,15.6
2018-06-09T07:15:24.238Z,12.6
2018-06-09T07:16:25.024Z,18.3
2018-06-09T07:17:25.759Z,15.3
2018-06-09T07:18:26.752Z,14.3
2018-06-09T07:19:27.501Z,19.8
2018-06-09T07:20:28.236Z,14.9
2018-06-09T07:21:29.016Z,12.9
2018-06-09T07:22:29.745Z,19.1
2018-06-09T07:23:30.729Z,13.2
2018-06-09T07:24:31.702Z,11.6
2018-06-09T07:25:32.685Z,15.6
2018-06-09T07:26:33.436Z,14.0
2018-06-09T07:27:34.167Z,17.7
2018-06-09T07:28:34.893Z,16.9
2018-06-09T07:29:35.638Z,16.5
2018-06-09T07:30:36.378Z,16.5
2018-06-09T07:31:37.113Z,12.2
2018-06-09T07:32:37.839Z,17.2
2018-06-09T07:33:38.574Z,13.8
2018-06-09T07:34:39.311Z,11.5
2018-06-09T07:35:40.037Z,13.1
2018-06-09T07:36:40.786Z,13.4
2018-06-09T07:37:41.512Z,18.2
2018-06-09T07:38:42.247Z,11.3
2018-06-09T07:39:42.998Z,11.4
2018-06-09T07:40:43.726Z,17.1
2018-06-09T07:41:44.472Z,12.2
2018-06-09T07:42:45.295Z,14.1
2018-06-09T07:43:46.029Z,16.0
2018-06-09T07:44:46.769Z,14.1
2018-06-09T07:45:47.501Z,15.0
2018-06-09T07:46:48.233Z,15.2
2018-06-09T07:47:49.634Z,17.6
2018-06-09T07:48:50.364Z,17.8
2018-06-09T07:49:51.089Z,12.0
2018-06-09T07:50:51.835Z,12.1
2018-06-09T07:51:52.576Z,14.0
2018-06-09T07:52:53.309Z,12.5
2018-06-09T07:53:54.050Z,12.8
2018-06-09T07:54:55.030Z,12.7
2018-06-09T07:55:55.768Z,12.6
2018-06-09T07:56:56.504Z,20.3
2018-06-09T07:57:57.639Z,14.7
2018-06-09T07:58:58.391Z,14.5
2018-06-09T07:59:59.115Z,12.7
2018-06-09T08:00:59.880Z,14.2
2018-06-09T08:02:00.606Z,11.8
2018-06-09T08:03:01.692Z,16.5
2018-06-09T08:04:02.679Z,12.8
2018-06-09T08:05:03.416Z,19.7
2018-06-09T08:06:04.145Z,14.5
2018-06-09T08:07:05.132Z,15.8
2018-06-09T08:08:05.880Z,15.2
2018-06-09T08:09:06.622Z,18.0
2018-06-09T08:10:07.356Z,19.4
2018-06-09T08:11:08.095Z,18.9
2018-06-09T08:12:08.831Z,18.0
2018-06-09T08:13:09.911Z,13.7
2018-06-09T08:14:10.647Z,16.6
2018-06-09T08:15:11.386Z,13.9
2018-06-09T08:16:12.126Z,14.1
2018-06-09T08:17:12.860Z,15.6
2018-06-09T08:18:13.588Z,13.5
2018-06-09T08:19:14.578Z,14.6
2018-06-09T08:20:15.308Z,14.3
2018-06-09T08:21:16.037Z,13.4
2018-06-09T08:22:16.772Z,13.2
2018-06-09T08:23:17.502Z,17.7
2018-06-09T08:24:18.232Z,20.9
2018-06-09T08:25:19.014Z,14.4
2018-06-09T08:26:19.760Z,23.5
2018-06-09T08:27:20.498Z,14.8
2018-06-09T08:28:21.232Z,15.0
2018-06-09T08:29:22.216Z,13.2
2018-06-09T08:30:23.257Z,19.0
2018-06-09T08:31:24.005Z,17.4
2018-06-09T08:32:24.747Z,13.4
2018-06-09T08:33:25.739Z,12.7
2018-06-09T08:34:26.473Z,21.3
2018-06-09T08:35:27.607Z,18.3
2018-06-09T08:36:28.397Z,18.4
2018-06-09T08:37:29.106Z,18.8
2018-06-09T08:38:29.846Z,12.3
2018-06-09T08:39:30.575Z,14.1
2018-06-09T08:40:31.326Z,16.6
2018-06-09T08:41:32.047Z,16.3
2018-06-09T08:42:32.777Z,19.4
2018-06-09T08:43:33.507Z,19.1
2018-06-09T08:44:34.235Z,19.9
2018-06-09T08:45:35.041Z,16.8
2018-06-09T08:46:35.707Z,13.9
2018-06-09T08:47:36.542Z,13.8
2018-06-09T08:48:37.283Z,14.4
2018-06-09T08:49:38.024Z,16.0
2018-06-09T08:50:38.759Z,15.5
2018-06-09T08:51:39.500Z,13.5
2018-06-09T08:52:40.236Z,12.7
2018-06-09T08:53:40.980Z,13.0
2018-06-09T08:54:41.715Z,15.2
2018-06-09T08:55:42.440Z,15.1
2018-06-09T08:56:43.172Z,14.6
2018-06-09T08:57:44.152Z,14.0
2018-06-09T08:58:44.899Z,17.5
2018-06-09T08:59:45.637Z,16.3
2018-06-09T09:00:46.371Z,15.8
2018-06-09T09:01:47.097Z,20.7
2018-06-09T09:02:47.832Z,14.7
2018-06-09T09:03:48.560Z,16.4
2018-06-09T09:04:49.285Z,16.5
2018-06-09T09:05:50.028Z,13.2
2018-06-09T09:06:50.755Z,16.0
2018-06-09T09:07:51.486Z,15.3
2018-06-09T09:08:52.218Z,12.5
2018-06-09T09:09:52.958Z,11.3
2018-06-09T09:10:53.693Z,14.3
2018-06-09T09:11:54.442Z,11.9
2018-06-09T09:12:55.191Z,12.0
2018-06-09T09:13:55.939Z,14.5
2018-06-09T09:14:56.673Z,15.4
2018-06-09T09:15:57.407Z,15.1
2018-06-09T09:16:58.149Z,12.0
2018-06-09T09:17:59.237Z,18.3
2018-06-09T09:18:59.967Z,13.6
2018-06-09T09:20:00.700Z,13.9
2018-06-09T09:21:01.438Z,13.3
2018-06-09T09:22:02.168Z,14.2
2018-06-09T09:23:03.017Z,16.8
2018-06-09T09:24:03.740Z,12.4
2018-06-09T09:25:04.483Z,13.1
2018-06-09T09:26:05.222Z,18.0
2018-06-09T09:27:06.208Z,15.3
2018-06-09T09:28:06.970Z,13.2
2018-06-09T09:29:07.709Z,18.0
2018-06-09T09:30:08.445Z,12.8
2018-06-09T09:31:09.185Z,17.2
2018-06-09T09:32:09.975Z,15.1
2018-06-09T09:33:10.663Z,14.1
2018-06-09T09:34:11.400Z,11.8
2018-06-09T09:35:12.139Z,12.1
2018-06-09T09:36:13.124Z,12.6
2018-06-09T09:37:13.857Z,15.0
2018-06-09T09:38:14.843Z,13.9
2018-06-09T09:39:15.583Z,15.2
2018-06-09T09:40:16.307Z,16.7
2018-06-09T09:41:17.058Z,12.1
2018-06-09T09:42:17.798Z,12.9
2018-06-09T09:43:18.535Z,13.9
2018-06-09T09:44:19.264Z,15.2
2018-06-09T09:45:20.008Z,12.3
2018-06-09T09:46:20.810Z,16.1
2018-06-09T09:47:21.538Z,11.8
2018-06-09T09:48:22.276Z,15.4
2018-06-09T09:49:23.024Z,18.7
2018-06-09T09:50:23.771Z,11.4
2018-06-09T09:51:24.571Z,11.6
2018-06-09T09:52:25.305Z,12.2
2018-06-09T09:53:26.050Z,14.9
2018-06-09T09:54:26.791Z,13.6
2018-06-09T09:55:27.526Z,13.3
2018-06-09T09:56:28.260Z,12.8
2018-06-09T09:57:28.994Z,11.7
2018-06-09T09:58:29.728Z,12.6
2018-06-09T09:59:30.483Z,16.4
2018-06-09T10:00:31.214Z,11.5
2018-06-09T10:01:31.962Z,11.1
2018-06-09T10:02:32.710Z,11.2
2018-06-09T10:03:33.451Z,16.7
2018-06-09T10:04:34.196Z,16.6
2018-06-09T10:05:35.182Z,17.9
2018-06-09T10:06:35.926Z,11.2
2018-06-09T10:07:36.715Z,11.6
2018-06-09T10:08:37.705Z,16.6
2018-06-09T10:09:38.444Z,12.1
2018-06-09T10:10:39.190Z,12.1
2018-06-09T10:11:40.187Z,10.7
2018-06-09T10:12:40.926Z,12.0
2018-06-09T10:13:41.916Z,11.8
2018-06-09T10:14:42.655Z,12.1
2018-06-09T10:15:43.385Z,10.7
2018-06-09T10:16:44.128Z,13.1
2018-06-09T10:17:44.873Z,11.3
2018-06-09T10:18:45.607Z,16.3
2018-06-09T10:19:46.368Z,11.5
2018-06-09T10:20:47.558Z,11.8
2018-06-09T10:21:48.289Z,13.5
2018-06-09T10:22:49.030Z,13.4
2018-06-09T10:23:49.776Z,12.5
2018-06-09T10:24:50.533Z,12.2
2018-06-09T10:25:51.249Z,12.9
2018-06-09T10:26:51.999Z,14.9
2018-06-09T10:27:52.743Z,12.6
2018-06-09T10:28:53.482Z,16.4
2018-06-09T10:29:54.224Z,14.2
2018-06-09T10:30:54.970Z,11.5
2018-06-09T10:31:55.714Z,12.1
2018-06-09T10:32:56.451Z,11.2
2018-06-09T10:33:57.455Z,21.0
2018-06-09T10:34:58.631Z,10.3
2018-06-09T10:35:59.374Z,11.7
2018-06-09T10:37:00.153Z,13.1
2018-06-09T10:38:00.896Z,11.4
2018-06-09T10:39:01.633Z,14.5
2018-06-09T10:40:02.375Z,10.7
2018-06-09T10:41:03.124Z,13.6
2018-06-09T10:42:04.149Z,10.2
2018-06-09T10:43:04.893Z,11.0
2018-06-09T10:44:05.624Z,12.1
2018-06-09T10:45:06.359Z,10.5
2018-06-09T10:46:07.099Z,12.1
2018-06-09T10:47:07.828Z,12.5
2018-06-09T10:48:08.567Z,11.3
2018-06-09T10:49:09.293Z,17.6
2018-06-09T10:50:10.034Z,11.0
2018-06-09T10:51:10.769Z,16.7
2018-06-09T10:52:11.762Z,17.3
2018-06-09T10:53:12.853Z,14.2
2018-06-09T10:54:13.604Z,12.3
2018-06-09T10:55:14.345Z,9.1
2018-06-09T10:56:15.082Z,17.1
2018-06-09T10:57:15.820Z,12.8
2018-06-09T10:58:16.957Z,10.5
2018-06-09T10:59:17.701Z,20.0
2018-06-09T11:00:18.425Z,9.0
2018-06-09T11:01:19.153Z,9.5
2018-06-09T11:02:19.898Z,10.1
2018-06-09T11:03:21.025Z,14.5
2018-06-09T11:04:21.754Z,11.4
2018-06-09T11:05:22.504Z,12.3
2018-06-09T11:06:23.233Z,12.8
2018-06-09T11:07:23.979Z,13.3
2018-06-09T11:08:24.858Z,10.1
2018-06-09T11:09:25.594Z,13.2
2018-06-09T11:10:26.336Z,11.4
2018-06-09T11:11:27.068Z,10.7
2018-06-09T11:12:27.804Z,14.2
2018-06-09T11:13:28.532Z,9.4
2018-06-09T11:14:29.264Z,9.8
2018-06-09T11:15:30.020Z,13.6
2018-06-09T11:16:30.747Z,13.5
2018-06-09T11:17:31.514Z,12.0
2018-06-09T11:18:32.241Z,15.9
2018-06-09T11:19:32.983Z,9.0
2018-06-09T11:20:33.722Z,12.0
2018-06-09T11:21:34.466Z,17.8
2018-06-09T11:22:35.704Z,10.7
2018-06-09T11:23:36.439Z,13.7
2018-06-09T11:24:37.167Z,10.5
2018-06-09T11:25:37.919Z,13.0
2018-06-09T11:26:38.649Z,13.2
2018-06-09T11:27:39.407Z,10.2
2018-06-09T11:28:40.132Z,9.7
2018-06-09T11:29:40.887Z,12.3
2018-06-09T11:30:41.626Z,10.8
2018-06-09T11:31:42.518Z,15.4
2018-06-09T11:32:43.233Z,13.1
2018-06-09T11:33:43.993Z,12.0
2018-06-09T11:34:44.725Z,9.3
2018-06-09T11:35:45.479Z,16.8
2018-06-09T11:36:46.310Z,18.1
2018-06-09T11:37:47.056Z,11.0
2018-06-09T11:38:47.784Z,8.8
2018-06-09T11:39:48.518Z,10.5
2018-06-09T11:40:49.253Z,9.9
2018-06-09T11:41:50.008Z,9.1
2018-06-09T11:42:50.751Z,8.7
2018-06-09T11:43:51.481Z,10.9
2018-06-09T11:44:52.209Z,11.7
2018-06-09T11:45:52.956Z,13.2
2018-06-09T11:46:53.690Z,8.5
2018-06-09T11:47:54.454Z,12.0
2018-06-09T11:48:55.180Z,8.5
2018-06-09T11:49:56.170Z,8.4
2018-06-09T11:50:56.932Z,12.0
2018-06-09T11:51:57.668Z,11.7
2018-06-09T11:52:58.409Z,11.6
2018-06-09T11:53:59.243Z,7.8
2018-06-09T11:54:59.990Z,13.1
2018-06-09T11:56:00.732Z,10.1
2018-06-09T11:57:01.729Z,11.2
2018-06-09T11:58:02.722Z,8.7
2018-06-09T11:59:03.468Z,8.3
2018-06-09T12:00:04.192Z,10.3
2018-06-09T12:01:04.935Z,11.1
2018-06-09T12:02:05.664Z,7.9
2018-06-09T12:03:06.410Z,9.7
2018-06-09T12:04:07.142Z,8.8
2018-06-09T12:05:07.883Z,8.9
2018-06-09T12:06:08.631Z,10.9
2018-06-09T12:07:09.375Z,8.1
2018-06-09T12:08:10.111Z,9.7
2018-06-09T12:09:10.869Z,11.4
2018-06-09T12:10:11.611Z,11.2
2018-06-09T12:11:12.595Z,12.1
2018-06-09T12:12:13.328Z,8.3
2018-06-09T12:13:14.068Z,9.2
2018-06-09T12:14:14.809Z,9.9
2018-06-09T12:15:15.560Z,9.4
2018-06-09T12:16:16.340Z,9.6
2018-06-09T12:17:17.116Z,9.5
2018-06-09T12:18:17.820Z,8.5
2018-06-09T12:19:18.563Z,12.6
2018-06-09T12:20:19.554Z,10.2
2018-06-09T12:21:20.549Z,10.8
2018-06-09T12:22:21.539Z,8.4
2018-06-09T12:23:22.515Z,8.5
2018-06-09T12:24:23.265Z,8.6
2018-06-09T12:25:24.008Z,9.6
2018-06-09T12:26:25.151Z,9.0
2018-06-09T12:27:25.894Z,11.8
2018-06-09T12:28:26.618Z,8.1
2018-06-09T12:29:27.359Z,10.4
2018-06-09T12:30:28.100Z,9.9
2018-06-09T12:31:28.837Z,9.6
2018-06-09T12:32:29.635Z,9.5
2018-06-09T12:33:30.412Z,11.7
2018-06-09T12:34:31.145Z,9.6
2018-06-09T12:35:31.882Z,11.1
2018-06-09T12:36:32.625Z,8.6
2018-06-09T12:37:34.261Z,9.7
2018-06-09T12:38:35.414Z,8.2
2018-06-09T12:39:36.160Z,8.0
2018-06-09T12:40:36.901Z,8.0
2018-06-09T12:41:37.647Z,8.0
2018-06-09T12:42:38.391Z,7.7
2018-06-09T12:43:39.282Z,7.4
2018-06-09T12:44:40.023Z,11.6
2018-06-09T12:45:40.737Z,9.4
2018-06-09T12:46:41.527Z,5.3
2018-06-09T12:47:42.270Z,5.8
2018-06-09T12:48:43.057Z,5.3
2018-06-09T12:49:43.746Z,5.5
2018-06-09T12:50:44.523Z,5.0
2018-06-09T12:51:45.681Z,5.3
2018-06-09T12:52:46.798Z,6.9
2018-06-09T12:53:47.627Z,5.2
2018-06-09T12:54:48.431Z,5.9
2018-06-09T12:55:49.142Z,7.8
2018-06-09T12:56:49.909Z,8.3
2018-06-09T12:57:50.636Z,7.4
2018-06-09T12:58:51.396Z,6.8
2018-06-09T12:59:52.140Z,6.7
2018-06-09T13:00:52.932Z,7.1
2018-06-09T13:01:53.686Z,5.7
2018-06-09T13:02:54.408Z,8.3
2018-06-09T13:03:55.149Z,6.2
2018-06-09T13:04:55.902Z,5.7
2018-06-09T13:05:56.633Z,6.1
2018-06-09T13:06:57.675Z,6.8
2018-06-09T13:07:58.423Z,8.4
2018-06-09T13:08:59.155Z,7.1
2018-06-09T13:09:59.920Z,7.4
2018-06-09T13:11:00.664Z,5.9
2018-06-09T13:12:01.424Z,5.8
2018-06-09T13:13:02.158Z,6.6
2018-06-09T13:14:02.917Z,11.7
2018-06-09T13:15:03.645Z,6.7
2018-06-09T13:16:04.396Z,5.6
2018-06-09T13:17:05.141Z,9.2
2018-06-09T13:18:05.885Z,6.9
2018-06-09T13:19:06.614Z,7.8
2018-06-09T13:20:07.369Z,5.7
2018-06-09T13:21:08.113Z,5.5
2018-06-09T13:22:08.961Z,5.8
2018-06-09T13:23:09.697Z,5.2
2018-06-09T13:24:10.444Z,9.9
2018-06-09T13:25:11.181Z,6.5
2018-06-09T13:26:11.924Z,5.8
2018-06-09T13:27:12.671Z,7.9
2018-06-09T13:28:13.413Z,5.5
2018-06-09T13:29:14.148Z,5.7
2018-06-09T13:30:14.927Z,6.6
2018-06-09T13:31:15.639Z,8.9
2018-06-09T13:32:16.389Z,5.8
2018-06-09T13:33:17.226Z,5.9
2018-06-09T13:34:17.978Z,5.9
2018-06-09T13:35:19.216Z,7.6